sensor_id;sensor_type;location;lat;lon;timestamp;pressure;altitude;pressure_sealevel;temperature;humidity
42705;BME280;28342;42.594;23.414;2023-05-08T00:01:15;94672.25;;;12.88;72.51
42705;BME280;28342;42.594;23.414;2023-05-08T00:03:40;94680.97;;;12.97;72.02
42705;BME280;28342;42.594;23.414;2023-05-08T00:06:06;94676.00;;;12.86;72.69
42705;BME280;28342;42.594;23.414;2023-05-08T00:08:31;94671.63;;;12.73;73.04
42705;BME280;28342;42.594;23.414;2023-05-08T00:10:57;94677.25;;;12.80;72.48
42705;BME280;28342;42.594;23.414;2023-05-08T00:13:23;94665.53;;;12.64;73.17
42705;BME280;28342;42.594;23.414;2023-05-08T00:15:48;94679.00;;;12.68;73.16
42705;BME280;28342;42.594;23.414;2023-05-08T00:18:14;94681.81;;;12.63;73.68
42705;BME280;28342;42.594;23.414;2023-05-08T00:20:39;94679.16;;;12.54;73.42
42705;BME280;28342;42.594;23.414;2023-05-08T00:23:05;94661.63;;;12.53;73.07
42705;BME280;28342;42.594;23.414;2023-05-08T00:25:31;94671.50;;;12.44;73.70
42705;BME280;28342;42.594;23.414;2023-05-08T00:27:57;94697.63;;;12.59;73.50
42705;BME280;28342;42.594;23.414;2023-05-08T00:30:22;94690.59;;;12.46;73.92
42705;BME280;28342;42.594;23.414;2023-05-08T00:32:48;94694.66;;;12.35;74.76
42705;BME280;28342;42.594;23.414;2023-05-08T00:35:13;94699.03;;;12.48;73.88
42705;BME280;28342;42.594;23.414;2023-05-08T00:37:39;94687.63;;;12.39;74.11
42705;BME280;28342;42.594;23.414;2023-05-08T00:40:09;94685.75;;;12.48;73.35
42705;BME280;28342;42.594;23.414;2023-05-08T00:42:35;94693.72;;;12.48;73.13
42705;BME280;28342;42.594;23.414;2023-05-08T00:45:00;94702.34;;;12.45;73.29
42705;BME280;28342;42.594;23.414;2023-05-08T00:47:26;94696.38;;;12.39;73.39
42705;BME280;28342;42.594;23.414;2023-05-08T00:49:52;94665.88;;;12.28;73.87
42705;BME280;28342;42.594;23.414;2023-05-08T00:52:18;94695.75;;;12.34;72.67
42705;BME280;28342;42.594;23.414;2023-05-08T00:54:44;94685.72;;;12.39;72.43
42705;BME280;28342;42.594;23.414;2023-05-08T00:57:10;94673.72;;;12.42;71.59
42705;BME280;28342;42.594;23.414;2023-05-08T00:59:38;94674.00;;;12.40;72.30
42705;BME280;28342;42.594;23.414;2023-05-08T01:02:06;94690.13;;;12.44;73.33
42705;BME280;28342;42.594;23.414;2023-05-08T01:04:33;94690.91;;;12.44;73.79
42705;BME280;28342;42.594;23.414;2023-05-08T01:07:00;94675.56;;;12.33;73.89
42705;BME280;28342;42.594;23.414;2023-05-08T01:09:25;94679.31;;;12.23;74.64
42705;BME280;28342;42.594;23.414;2023-05-08T01:23:33;94703.59;;;12.30;74.47
42705;BME280;28342;42.594;23.414;2023-05-08T01:34:31;94704.34;;;12.05;76.09
42705;BME280;28342;42.594;23.414;2023-05-08T01:39:46;94703.53;;;11.87;75.08
42705;BME280;28342;42.594;23.414;2023-05-08T01:44:59;94697.28;;;11.83;75.68
42705;BME280;28342;42.594;23.414;2023-05-08T01:47:28;94686.16;;;11.81;75.19
42705;BME280;28342;42.594;23.414;2023-05-08T01:50:04;94702.13;;;11.81;76.00
42705;BME280;28342;42.594;23.414;2023-05-08T01:52:41;94680.63;;;11.68;75.81
42705;BME280;28342;42.594;23.414;2023-05-08T01:55:10;94681.06;;;11.62;75.89
42705;BME280;28342;42.594;23.414;2023-05-08T01:57:46;94686.22;;;11.58;76.50
42705;BME280;28342;42.594;23.414;2023-05-08T02:00:15;94680.13;;;11.58;76.09
42705;BME280;28342;42.594;23.414;2023-05-08T02:02:42;94694.03;;;11.63;76.68
42705;BME280;28342;42.594;23.414;2023-05-08T02:05:09;94670.59;;;11.57;76.25
42705;BME280;28342;42.594;23.414;2023-05-08T02:07:36;94686.84;;;11.55;76.67
42705;BME280;28342;42.594;23.414;2023-05-08T02:10:03;94689.81;;;11.62;75.77
42705;BME280;28342;42.594;23.414;2023-05-08T02:12:30;94669.50;;;11.49;75.98
42705;BME280;28342;42.594;23.414;2023-05-08T02:14:58;94682.63;;;11.54;76.29
42705;BME280;28342;42.594;23.414;2023-05-08T02:17:24;94676.38;;;11.50;76.31
42705;BME280;28342;42.594;23.414;2023-05-08T02:19:51;94683.19;;;11.43;76.68
42705;BME280;28342;42.594;23.414;2023-05-08T02:22:20;94682.41;;;11.42;77.04
42705;BME280;28342;42.594;23.414;2023-05-08T02:24:48;94688.34;;;11.39;76.89
42705;BME280;28342;42.594;23.414;2023-05-08T02:27:19;94699.50;;;11.50;76.70
42705;BME280;28342;42.594;23.414;2023-05-08T02:29:45;94704.16;;;11.44;77.20
42705;BME280;28342;42.594;23.414;2023-05-08T02:32:11;94693.19;;;11.37;77.34
42705;BME280;28342;42.594;23.414;2023-05-08T02:34:38;94710.38;;;11.40;77.46
42705;BME280;28342;42.594;23.414;2023-05-08T02:37:05;94706.03;;;11.13;78.73
42705;BME280;28342;42.594;23.414;2023-05-08T02:39:32;94699.38;;;11.24;77.73
42705;BME280;28342;42.594;23.414;2023-05-08T02:41:59;94693.53;;;11.04;77.68
42705;BME280;28342;42.594;23.414;2023-05-08T02:44:25;94697.59;;;11.11;77.09
42705;BME280;28342;42.594;23.414;2023-05-08T02:47:33;94704.47;;;11.12;76.97
42705;BME280;28342;42.594;23.414;2023-05-08T02:50:20;94708.22;;;11.11;77.14
42705;BME280;28342;42.594;23.414;2023-05-08T02:52:50;94695.19;;;11.00;77.32
42705;BME280;28342;42.594;23.414;2023-05-08T03:00:36;94702.22;;;10.96;77.88
42705;BME280;28342;42.594;23.414;2023-05-08T03:03:14;94698.91;;;10.91;78.02
42705;BME280;28342;42.594;23.414;2023-05-08T03:05:46;94713.19;;;11.03;78.16
42705;BME280;28342;42.594;23.414;2023-05-08T03:08:15;94717.72;;;11.03;77.64
42705;BME280;28342;42.594;23.414;2023-05-08T03:10:44;94707.09;;;11.03;77.58
42705;BME280;28342;42.594;23.414;2023-05-08T03:13:11;94700.31;;;10.88;77.64
42705;BME280;28342;42.594;23.414;2023-05-08T03:15:43;94713.47;;;11.02;77.58
42705;BME280;28342;42.594;23.414;2023-05-08T03:18:14;94713.75;;;10.92;78.20
42705;BME280;28342;42.594;23.414;2023-05-08T03:20:44;94723.81;;;11.03;77.82
42705;BME280;28342;42.594;23.414;2023-05-08T03:23:12;94713.06;;;10.86;78.73
42705;BME280;28342;42.594;23.414;2023-05-08T03:25:40;94726.72;;;10.93;78.55
42705;BME280;28342;42.594;23.414;2023-05-08T03:28:06;94710.94;;;10.97;77.94
42705;BME280;28342;42.594;23.414;2023-05-08T03:30:36;94706.97;;;10.86;78.25
42705;BME280;28342;42.594;23.414;2023-05-08T03:33:06;94722.84;;;10.77;79.49
42705;BME280;28342;42.594;23.414;2023-05-08T03:35:34;94729.19;;;10.90;78.84
42705;BME280;28342;42.594;23.414;2023-05-08T03:38:01;94710.78;;;10.93;78.24
42705;BME280;28342;42.594;23.414;2023-05-08T03:40:26;94719.44;;;11.07;78.05
42705;BME280;28342;42.594;23.414;2023-05-08T03:42:52;94722.59;;;11.10;78.77
42705;BME280;28342;42.594;23.414;2023-05-08T03:45:18;94713.53;;;11.11;79.06
42705;BME280;28342;42.594;23.414;2023-05-08T03:47:45;94721.34;;;11.16;79.69
42705;BME280;28342;42.594;23.414;2023-05-08T03:50:10;94716.25;;;11.19;79.59
42705;BME280;28342;42.594;23.414;2023-05-08T03:52:37;94707.59;;;11.14;78.53
42705;BME280;28342;42.594;23.414;2023-05-08T03:55:03;94722.66;;;11.27;79.20
42705;BME280;28342;42.594;23.414;2023-05-08T03:57:34;94732.56;;;11.35;79.61
42705;BME280;28342;42.594;23.414;2023-05-08T04:00:18;94719.53;;;11.25;79.64
42705;BME280;28342;42.594;23.414;2023-05-08T04:02:51;94720.66;;;11.32;78.59
42705;BME280;28342;42.594;23.414;2023-05-08T04:05:25;94719.28;;;11.35;79.29
42705;BME280;28342;42.594;23.414;2023-05-08T04:10:32;94718.38;;;11.48;79.26
42705;BME280;28342;42.594;23.414;2023-05-08T04:13:07;94733.13;;;11.63;79.08
42705;BME280;28342;42.594;23.414;2023-05-08T04:15:37;94727.63;;;11.59;80.34
42705;BME280;28342;42.594;23.414;2023-05-08T04:18:04;94742.84;;;11.67;80.47
42705;BME280;28342;42.594;23.414;2023-05-08T04:20:31;94726.53;;;11.60;81.00
42705;BME280;28342;42.594;23.414;2023-05-08T04:22:58;94719.97;;;11.58;81.56
42705;BME280;28342;42.594;23.414;2023-05-08T04:25:24;94738.06;;;11.87;80.75
42705;BME280;28342;42.594;23.414;2023-05-08T04:27:51;94731.50;;;11.93;80.68
42705;BME280;28342;42.594;23.414;2023-05-08T04:30:17;94743.91;;;12.06;80.37
42705;BME280;28342;42.594;23.414;2023-05-08T04:32:43;94741.59;;;12.22;79.69
42705;BME280;28342;42.594;23.414;2023-05-08T04:35:09;94724.22;;;12.24;79.43
42705;BME280;28342;42.594;23.414;2023-05-08T04:37:35;94741.94;;;12.46;77.95
42705;BME280;28342;42.594;23.414;2023-05-08T04:40:01;94735.97;;;12.49;78.01
42705;BME280;28342;42.594;23.414;2023-05-08T04:42:27;94746.00;;;12.61;75.74
42705;BME280;28342;42.594;23.414;2023-05-08T04:44:53;94743.03;;;12.89;76.87
42705;BME280;28342;42.594;23.414;2023-05-08T04:47:19;94741.56;;;13.00;74.97
42705;BME280;28342;42.594;23.414;2023-05-08T04:49:45;94739.50;;;13.14;75.90
42705;BME280;28342;42.594;23.414;2023-05-08T04:52:11;94716.50;;;13.09;74.49
42705;BME280;28342;42.594;23.414;2023-05-08T04:54:36;94731.25;;;13.07;75.24
42705;BME280;28342;42.594;23.414;2023-05-08T04:57:02;94724.50;;;13.18;73.42
42705;BME280;28342;42.594;23.414;2023-05-08T04:59:28;94717.56;;;13.17;74.34
42705;BME280;28342;42.594;23.414;2023-05-08T05:01:54;94713.06;;;13.18;73.32
42705;BME280;28342;42.594;23.414;2023-05-08T05:04:23;94721.81;;;13.35;73.06
42705;BME280;28342;42.594;23.414;2023-05-08T05:06:48;94719.88;;;13.44;71.70
42705;BME280;28342;42.594;23.414;2023-05-08T05:09:14;94722.38;;;13.50;71.77
42705;BME280;28342;42.594;23.414;2023-05-08T05:11:40;94718.56;;;13.59;72.25
42705;BME280;28342;42.594;23.414;2023-05-08T05:14:05;94721.47;;;13.75;72.23
42705;BME280;28342;42.594;23.414;2023-05-08T05:16:31;94712.34;;;13.76;71.40
42705;BME280;28342;42.594;23.414;2023-05-08T05:18:57;94705.66;;;13.70;72.42
42705;BME280;28342;42.594;23.414;2023-05-08T05:21:23;94717.34;;;13.86;71.08
42705;BME280;28342;42.594;23.414;2023-05-08T05:23:48;94710.81;;;13.75;70.74
42705;BME280;28342;42.594;23.414;2023-05-08T05:26:14;94692.47;;;13.73;71.91
42705;BME280;28342;42.594;23.414;2023-05-08T05:28:39;94699.97;;;13.80;71.04
42705;BME280;28342;42.594;23.414;2023-05-08T05:31:05;94707.22;;;14.00;70.41
42705;BME280;28342;42.594;23.414;2023-05-08T05:33:30;94704.47;;;13.88;70.45
42705;BME280;28342;42.594;23.414;2023-05-08T05:35:56;94704.75;;;13.95;72.72
42705;BME280;28342;42.594;23.414;2023-05-08T05:38:21;94700.47;;;14.03;69.97
42705;BME280;28342;42.594;23.414;2023-05-08T05:40:47;94699.19;;;14.09;70.96
42705;BME280;28342;42.594;23.414;2023-05-08T05:43:13;94700.22;;;14.17;70.47
42705;BME280;28342;42.594;23.414;2023-05-08T05:45:38;94685.09;;;14.21;69.69
42705;BME280;28342;42.594;23.414;2023-05-08T05:48:04;94691.63;;;14.32;69.82
42705;BME280;28342;42.594;23.414;2023-05-08T05:50:30;94709.09;;;14.50;69.48
42705;BME280;28342;42.594;23.414;2023-05-08T05:52:55;94698.97;;;14.44;69.02
42705;BME280;28342;42.594;23.414;2023-05-08T05:55:21;94699.97;;;14.51;68.67
42705;BME280;28342;42.594;23.414;2023-05-08T05:57:46;94707.22;;;14.72;69.17
42705;BME280;28342;42.594;23.414;2023-05-08T06:00:13;94709.66;;;14.77;67.69
42705;BME280;28342;42.594;23.414;2023-05-08T06:02:38;94704.38;;;14.89;68.00
42705;BME280;28342;42.594;23.414;2023-05-08T06:05:06;94702.50;;;14.89;66.96
42705;BME280;28342;42.594;23.414;2023-05-08T06:07:31;94701.53;;;15.06;66.36
42705;BME280;28342;42.594;23.414;2023-05-08T06:09:57;94690.88;;;15.18;66.29
42705;BME280;28342;42.594;23.414;2023-05-08T06:12:23;94682.88;;;15.31;64.99
42705;BME280;28342;42.594;23.414;2023-05-08T06:14:50;94679.44;;;15.42;66.57
42705;BME280;28342;42.594;23.414;2023-05-08T06:17:16;94687.72;;;15.62;66.29
42705;BME280;28342;42.594;23.414;2023-05-08T06:19:41;94678.03;;;15.69;65.22
42705;BME280;28342;42.594;23.414;2023-05-08T06:22:07;94691.16;;;15.74;64.18
42705;BME280;28342;42.594;23.414;2023-05-08T06:24:32;94686.72;;;15.78;64.49
42705;BME280;28342;42.594;23.414;2023-05-08T06:26:59;94696.09;;;15.97;64.88
42705;BME280;28342;42.594;23.414;2023-05-08T06:29:25;94684.88;;;16.19;66.80
42705;BME280;28342;42.594;23.414;2023-05-08T06:31:50;94691.31;;;16.42;65.63
42705;BME280;28342;42.594;23.414;2023-05-08T06:34:15;94688.03;;;16.61;64.39
42705;BME280;28342;42.594;23.414;2023-05-08T06:36:41;94681.81;;;16.85;62.39
42705;BME280;28342;42.594;23.414;2023-05-08T06:39:06;94678.94;;;17.06;65.00
42705;BME280;28342;42.594;23.414;2023-05-08T06:41:32;94686.34;;;17.13;64.93
42705;BME280;28342;42.594;23.414;2023-05-08T06:43:57;94684.75;;;17.24;63.73
42705;BME280;28342;42.594;23.414;2023-05-08T06:46:23;94696.44;;;17.47;63.28
42705;BME280;28342;42.594;23.414;2023-05-08T06:48:49;94696.13;;;17.80;64.40
42705;BME280;28342;42.594;23.414;2023-05-08T06:51:14;94692.72;;;17.99;62.11
42705;BME280;28342;42.594;23.414;2023-05-08T06:53:40;94689.69;;;18.01;59.51
42705;BME280;28342;42.594;23.414;2023-05-08T06:56:05;94688.09;;;18.15;61.95
42705;BME280;28342;42.594;23.414;2023-05-08T06:58:31;94687.41;;;18.38;61.18
42705;BME280;28342;42.594;23.414;2023-05-08T07:00:59;94678.53;;;18.53;60.45
42705;BME280;28342;42.594;23.414;2023-05-08T07:03:26;94689.09;;;18.81;58.27
42705;BME280;28342;42.594;23.414;2023-05-08T07:05:52;94695.94;;;18.98;58.47
42705;BME280;28342;42.594;23.414;2023-05-08T07:08:18;94695.84;;;19.14;58.54
42705;BME280;28342;42.594;23.414;2023-05-08T07:10:43;94690.97;;;19.42;58.15
42705;BME280;28342;42.594;23.414;2023-05-08T07:13:09;94696.00;;;19.44;55.78
42705;BME280;28342;42.594;23.414;2023-05-08T07:15:34;94684.38;;;19.59;57.16
42705;BME280;28342;42.594;23.414;2023-05-08T07:18:02;94695.72;;;19.49;57.32
42705;BME280;28342;42.594;23.414;2023-05-08T07:20:28;94695.88;;;19.56;56.32
42705;BME280;28342;42.594;23.414;2023-05-08T07:22:53;94692.59;;;19.66;56.36
42705;BME280;28342;42.594;23.414;2023-05-08T07:25:19;94698.66;;;19.86;54.94
42705;BME280;28342;42.594;23.414;2023-05-08T07:27:44;94714.75;;;19.82;54.57
42705;BME280;28342;42.594;23.414;2023-05-08T07:30:10;94706.28;;;19.80;53.06
42705;BME280;28342;42.594;23.414;2023-05-08T07:32:35;94703.41;;;19.92;55.20
42705;BME280;28342;42.594;23.414;2023-05-08T07:35:03;94713.13;;;20.27;51.98
42705;BME280;28342;42.594;23.414;2023-05-08T07:37:30;94687.53;;;20.40;54.41
42705;BME280;28342;42.594;23.414;2023-05-08T07:39:57;94693.00;;;20.74;49.00
42705;BME280;28342;42.594;23.414;2023-05-08T07:42:22;94699.66;;;21.17;48.76
42705;BME280;28342;42.594;23.414;2023-05-08T07:44:48;94700.66;;;21.39;49.29
42705;BME280;28342;42.594;23.414;2023-05-08T07:47:13;94674.47;;;21.43;48.93
42705;BME280;28342;42.594;23.414;2023-05-08T07:49:39;94698.22;;;21.67;46.59
42705;BME280;28342;42.594;23.414;2023-05-08T07:52:04;94705.06;;;22.02;48.28
42705;BME280;28342;42.594;23.414;2023-05-08T07:54:29;94702.97;;;22.25;47.46
42705;BME280;28342;42.594;23.414;2023-05-08T07:56:55;94700.66;;;22.27;47.89
42705;BME280;28342;42.594;23.414;2023-05-08T07:59:20;94684.31;;;22.06;46.93
42705;BME280;28342;42.594;23.414;2023-05-08T08:01:46;94706.13;;;22.42;45.97
42705;BME280;28342;42.594;23.414;2023-05-08T08:04:14;94705.34;;;22.38;45.62
42705;BME280;28342;42.594;23.414;2023-05-08T08:06:40;94708.84;;;22.42;46.04
42705;BME280;28342;42.594;23.414;2023-05-08T08:09:06;94713.09;;;22.43;46.02
42705;BME280;28342;42.594;23.414;2023-05-08T08:11:31;94712.31;;;22.39;45.41
42705;BME280;28342;42.594;23.414;2023-05-08T08:13:57;94708.38;;;22.32;47.58
42705;BME280;28342;42.594;23.414;2023-05-08T08:16:22;94699.47;;;22.21;46.15
42705;BME280;28342;42.594;23.414;2023-05-08T08:18:48;94712.16;;;22.21;44.68
42705;BME280;28342;42.594;23.414;2023-05-08T08:21:13;94710.09;;;22.55;49.11
42705;BME280;28342;42.594;23.414;2023-05-08T08:23:39;94708.00;;;23.07;45.79
42705;BME280;28342;42.594;23.414;2023-05-08T08:26:04;94709.66;;;23.33;44.76
42705;BME280;28342;42.594;23.414;2023-05-08T08:28:30;94707.41;;;23.60;45.04
42705;BME280;28342;42.594;23.414;2023-05-08T08:30:56;94719.81;;;23.96;44.24
42705;BME280;28342;42.594;23.414;2023-05-08T08:33:21;94710.50;;;24.11;43.99
42705;BME280;28342;42.594;23.414;2023-05-08T08:35:46;94703.53;;;24.32;43.52
42705;BME280;28342;42.594;23.414;2023-05-08T08:38:12;94708.94;;;23.68;41.14
42705;BME280;28342;42.594;23.414;2023-05-08T08:40:40;94696.19;;;23.65;41.16
42705;BME280;28342;42.594;23.414;2023-05-08T08:43:06;94696.53;;;23.52;42.22
42705;BME280;28342;42.594;23.414;2023-05-08T08:45:32;94691.09;;;23.45;43.04
42705;BME280;28342;42.594;23.414;2023-05-08T08:48:01;94694.25;;;23.65;46.82
42705;BME280;28342;42.594;23.414;2023-05-08T08:50:30;94689.63;;;23.98;44.15
42705;BME280;28342;42.594;23.414;2023-05-08T08:53:09;94702.00;;;24.09;42.69
42705;BME280;28342;42.594;23.414;2023-05-08T08:55:39;94690.78;;;23.90;41.99
42705;BME280;28342;42.594;23.414;2023-05-08T08:58:43;94680.31;;;23.67;41.10
42705;BME280;28342;42.594;23.414;2023-05-08T09:01:15;94692.28;;;23.44;44.28
42705;BME280;28342;42.594;23.414;2023-05-08T09:03:42;94681.03;;;23.28;41.94
42705;BME280;28342;42.594;23.414;2023-05-08T09:06:07;94674.75;;;22.99;44.17
42705;BME280;28342;42.594;23.414;2023-05-08T09:08:34;94677.41;;;22.85;42.50
42705;BME280;28342;42.594;23.414;2023-05-08T09:11:01;94686.22;;;22.71;44.46
42705;BME280;28342;42.594;23.414;2023-05-08T09:13:28;94670.75;;;22.72;45.18
42705;BME280;28342;42.594;23.414;2023-05-08T09:15:53;94666.75;;;22.41;44.29
42705;BME280;28342;42.594;23.414;2023-05-08T09:18:19;94674.41;;;22.31;46.15
42705;BME280;28342;42.594;23.414;2023-05-08T09:20:45;94669.69;;;22.14;45.03
42705;BME280;28342;42.594;23.414;2023-05-08T09:23:11;94659.41;;;21.83;45.87
42705;BME280;28342;42.594;23.414;2023-05-08T09:28:20;94661.19;;;21.64;46.72
42705;BME280;28342;42.594;23.414;2023-05-08T09:30:49;94664.03;;;21.38;49.97
42705;BME280;28342;42.594;23.414;2023-05-08T09:33:16;94651.16;;;21.24;49.22
42705;BME280;28342;42.594;23.414;2023-05-08T09:35:41;94657.09;;;21.00;52.02
42705;BME280;28342;42.594;23.414;2023-05-08T09:38:07;94651.69;;;21.00;51.60
42705;BME280;28342;42.594;23.414;2023-05-08T09:40:32;94635.53;;;21.03;50.71
42705;BME280;28342;42.594;23.414;2023-05-08T09:43:11;94624.75;;;21.03;49.90
42705;BME280;28342;42.594;23.414;2023-05-08T09:45:38;94630.06;;;20.96;49.34
42705;BME280;28342;42.594;23.414;2023-05-08T09:48:05;94635.41;;;20.89;49.56
42705;BME280;28342;42.594;23.414;2023-05-08T09:50:30;94633.25;;;21.05;50.75
42705;BME280;28342;42.594;23.414;2023-05-08T09:52:57;94625.50;;;21.00;49.98
42705;BME280;28342;42.594;23.414;2023-05-08T09:55:22;94633.16;;;20.98;51.74
42705;BME280;28342;42.594;23.414;2023-05-08T09:57:58;94631.63;;;20.97;49.98
42705;BME280;28342;42.594;23.414;2023-05-08T10:00:25;94650.25;;;21.09;51.81
42705;BME280;28342;42.594;23.414;2023-05-08T10:02:59;94651.88;;;21.17;53.90
42705;BME280;28342;42.594;23.414;2023-05-08T10:05:30;94655.25;;;21.44;52.10
42705;BME280;28342;42.594;23.414;2023-05-08T10:08:17;94658.50;;;21.68;50.45
42705;BME280;28342;42.594;23.414;2023-05-08T10:10:42;94659.38;;;21.79;50.32
42705;BME280;28342;42.594;23.414;2023-05-08T10:13:08;94652.38;;;21.74;49.31
42705;BME280;28342;42.594;23.414;2023-05-08T10:15:37;94650.31;;;22.05;50.24
42705;BME280;28342;42.594;23.414;2023-05-08T10:18:07;94650.66;;;22.00;49.81
42705;BME280;28342;42.594;23.414;2023-05-08T10:20:34;94651.03;;;22.02;47.66
42705;BME280;28342;42.594;23.414;2023-05-08T10:23:03;94629.91;;;22.11;47.55
42705;BME280;28342;42.594;23.414;2023-05-08T10:25:33;94639.66;;;22.26;46.95
42705;BME280;28342;42.594;23.414;2023-05-08T10:28:08;94622.31;;;22.34;46.79
42705;BME280;28342;42.594;23.414;2023-05-08T10:30:38;94625.13;;;22.56;48.42
42705;BME280;28342;42.594;23.414;2023-05-08T10:33:09;94618.03;;;22.30;47.15
42705;BME280;28342;42.594;23.414;2023-05-08T10:35:38;94616.13;;;22.30;45.55
42705;BME280;28342;42.594;23.414;2023-05-08T10:38:04;94622.00;;;22.50;46.91
42705;BME280;28342;42.594;23.414;2023-05-08T10:40:32;94616.59;;;22.50;46.55
42705;BME280;28342;42.594;23.414;2023-05-08T10:42:59;94615.81;;;22.50;49.25
42705;BME280;28342;42.594;23.414;2023-05-08T10:45:25;94612.78;;;22.62;47.46
42705;BME280;28342;42.594;23.414;2023-05-08T10:50:53;94629.06;;;22.80;48.40
42705;BME280;28342;42.594;23.414;2023-05-08T10:53:35;94616.00;;;22.96;48.98
42705;BME280;28342;42.594;23.414;2023-05-08T10:56:03;94609.88;;;23.17;46.65
42705;BME280;28342;42.594;23.414;2023-05-08T10:58:31;94596.34;;;23.31;46.48
42705;BME280;28342;42.594;23.414;2023-05-08T11:03:27;94617.66;;;23.68;45.29
42705;BME280;28342;42.594;23.414;2023-05-08T11:05:54;94602.19;;;23.62;43.97
42705;BME280;28342;42.594;23.414;2023-05-08T11:08:25;94607.16;;;24.09;46.02
42705;BME280;28342;42.594;23.414;2023-05-08T11:11:30;94605.97;;;24.18;43.77
42705;BME280;28342;42.594;23.414;2023-05-08T11:14:08;94592.44;;;24.03;46.29
42705;BME280;28342;42.594;23.414;2023-05-08T11:19:21;94597.78;;;24.46;42.94
42705;BME280;28342;42.594;23.414;2023-05-08T11:24:35;94582.41;;;24.98;44.85
42705;BME280;28342;42.594;23.414;2023-05-08T11:27:01;94565.47;;;25.43;43.23
42705;BME280;28342;42.594;23.414;2023-05-08T11:29:26;94555.63;;;25.56;40.92
42705;BME280;28342;42.594;23.414;2023-05-08T11:31:52;94575.03;;;25.58;41.15
42705;BME280;28342;42.594;23.414;2023-05-08T11:37:22;94545.53;;;25.60;41.71
42705;BME280;28342;42.594;23.414;2023-05-08T11:39:49;94550.19;;;25.56;41.25
42705;BME280;28342;42.594;23.414;2023-05-08T11:44:58;94535.13;;;25.92;40.53
42705;BME280;28342;42.594;23.414;2023-05-08T11:47:41;94526.09;;;26.03;40.97
42705;BME280;28342;42.594;23.414;2023-05-08T11:50:08;94541.31;;;25.97;41.50
42705;BME280;28342;42.594;23.414;2023-05-08T11:52:34;94527.19;;;26.09;40.24
42705;BME280;28342;42.594;23.414;2023-05-08T11:55:03;94523.84;;;25.94;41.33
42705;BME280;28342;42.594;23.414;2023-05-08T11:57:29;94525.16;;;26.16;41.86
42705;BME280;28342;42.594;23.414;2023-05-08T11:59:55;94522.97;;;25.63;39.33
42705;BME280;28342;42.594;23.414;2023-05-08T12:02:34;94519.59;;;25.52;39.83
42705;BME280;28342;42.594;23.414;2023-05-08T12:04:59;94504.44;;;25.54;42.39
42705;BME280;28342;42.594;23.414;2023-05-08T12:07:26;94496.69;;;25.94;42.54
42705;BME280;28342;42.594;23.414;2023-05-08T12:09:51;94518.97;;;26.50;42.23
42705;BME280;28342;42.594;23.414;2023-05-08T12:12:17;94509.19;;;26.83;38.42
42705;BME280;28342;42.594;23.414;2023-05-08T12:14:42;94507.53;;;26.89;38.35
42705;BME280;28342;42.594;23.414;2023-05-08T12:17:08;94481.69;;;26.47;41.31
42705;BME280;28342;42.594;23.414;2023-05-08T12:19:34;94507.50;;;26.35;39.52
42705;BME280;28342;42.594;23.414;2023-05-08T12:21:59;94500.00;;;26.09;40.14
42705;BME280;28342;42.594;23.414;2023-05-08T12:24:25;94493.41;;;25.76;38.75
42705;BME280;28342;42.594;23.414;2023-05-08T12:26:54;94500.06;;;26.02;40.98
42705;BME280;28342;42.594;23.414;2023-05-08T12:29:20;94504.53;;;26.19;40.19
42705;BME280;28342;42.594;23.414;2023-05-08T12:31:47;94502.69;;;26.12;39.59
42705;BME280;28342;42.594;23.414;2023-05-08T12:34:13;94493.97;;;25.94;40.81
42705;BME280;28342;42.594;23.414;2023-05-08T12:36:39;94489.84;;;25.38;39.79
42705;BME280;28342;42.594;23.414;2023-05-08T12:39:15;94475.59;;;25.26;39.00
42705;BME280;28342;42.594;23.414;2023-05-08T12:41:51;94473.88;;;25.02;41.21
42705;BME280;28342;42.594;23.414;2023-05-08T12:44:24;94483.91;;;25.05;41.11
42705;BME280;28342;42.594;23.414;2023-05-08T12:46:54;94485.13;;;25.00;42.23
42705;BME280;28342;42.594;23.414;2023-05-08T12:49:27;94500.47;;;24.59;43.45
42705;BME280;28342;42.594;23.414;2023-05-08T12:52:07;94497.41;;;24.53;44.82
42705;BME280;28342;42.594;23.414;2023-05-08T12:54:35;94515.63;;;24.49;49.28
42705;BME280;28342;42.594;23.414;2023-05-08T12:57:07;94513.03;;;24.21;54.08
42705;BME280;28342;42.594;23.414;2023-05-08T12:59:33;94508.16;;;23.59;58.28
42705;BME280;28342;42.594;23.414;2023-05-08T13:01:58;94504.34;;;23.17;57.95
42705;BME280;28342;42.594;23.414;2023-05-08T13:04:23;94493.03;;;22.54;61.46
42705;BME280;28342;42.594;23.414;2023-05-08T13:06:54;94496.53;;;22.73;63.07
42705;BME280;28342;42.594;23.414;2023-05-08T13:09:19;94479.91;;;22.60;63.24
42705;BME280;28342;42.594;23.414;2023-05-08T13:11:45;94457.88;;;22.47;65.32
42705;BME280;28342;42.594;23.414;2023-05-08T13:14:11;94468.69;;;22.51;65.11
42705;BME280;28342;42.594;23.414;2023-05-08T13:16:46;94465.19;;;22.32;66.24
42705;BME280;28342;42.594;23.414;2023-05-08T13:19:34;94487.59;;;22.36;63.00
42705;BME280;28342;42.594;23.414;2023-05-08T13:21:59;94465.97;;;22.36;62.34
42705;BME280;28342;42.594;23.414;2023-05-08T13:24:25;94477.94;;;22.39;63.36
42705;BME280;28342;42.594;23.414;2023-05-08T13:26:51;94479.88;;;22.39;64.77
42705;BME280;28342;42.594;23.414;2023-05-08T13:29:16;94473.69;;;22.42;65.83
42705;BME280;28342;42.594;23.414;2023-05-08T13:31:41;94492.25;;;22.47;67.13
42705;BME280;28342;42.594;23.414;2023-05-08T13:34:07;94482.94;;;22.33;68.25
42705;BME280;28342;42.594;23.414;2023-05-08T13:36:34;94494.56;;;22.45;66.47
42705;BME280;28342;42.594;23.414;2023-05-08T13:38:59;94495.31;;;22.42;63.89
42705;BME280;28342;42.594;23.414;2023-05-08T13:41:25;94485.13;;;22.03;60.32
42705;BME280;28342;42.594;23.414;2023-05-08T13:43:50;94503.00;;;22.25;57.98
42705;BME280;28342;42.594;23.414;2023-05-08T13:46:15;94506.72;;;21.96;57.28